Time;durP1;ratioP1;P1;durP2;ratioP2;P2;SDS_P1;SDS_P2;PMS_P1;PMS_P2;Temp;Humidity;BMP_temperature;BMP_pressure;BME280_temperature;BME280_humidity;BME280_pressure;Samples;Min_cycle;Max_cycle;Signal;HPM_P1;HPM_P2
2022/04/28 00:01:41;;;;;;;5.47;4.90;;;7.00;99.90;;;;;;5036911;28;20201;-66
2022/04/28 00:04:06;;;;;;;6.00;4.73;;;7.00;99.90;;;;;;5036091;28;20206;-66
2022/04/28 00:06:32;;;;;;;6.60;4.40;;;7.00;99.90;;;;;;5035369;28;20175;-66
2022/04/28 00:08:58;;;;;;;4.90;4.50;;;7.00;99.90;;;;;;5036971;28;20166;-66
2022/04/28 00:11:24;;;;;;;5.30;3.40;;;7.00;99.90;;;;;;5036851;28;20425;-66
2022/04/28 00:13:50;;;;;;;4.68;4.28;;;7.00;99.90;;;;;;5035954;28;20184;-66
2022/04/28 00:16:16;;;;;;;6.17;5.57;;;6.90;99.90;;;;;;5036689;28;20590;-66
2022/04/28 00:18:41;;;;;;;5.60;4.33;;;6.90;99.90;;;;;;5036677;28;20193;-66
2022/04/28 00:21:07;;;;;;;6.50;5.60;;;6.80;99.90;;;;;;5035134;28;20202;-66
2022/04/28 00:23:35;;;;;;;5.67;4.90;;;6.80;99.90;;;;;;5036003;28;20244;-66
2022/04/28 00:26:01;;;;;;;6.22;5.28;;;6.70;99.90;;;;;;5036620;28;20529;-66
2022/04/28 00:28:26;;;;;;;7.37;5.20;;;6.70;99.90;;;;;;5036577;28;20255;-66
2022/04/28 00:30:52;;;;;;;7.17;6.00;;;6.70;99.90;;;;;;5036426;28;20222;-66
2022/04/28 00:33:18;;;;;;;6.30;5.70;;;6.70;99.90;;;;;;5035712;28;20263;-66
2022/04/28 00:35:44;;;;;;;5.77;4.37;;;6.60;99.90;;;;;;5036298;28;20245;-66
2022/04/28 00:38:11;;;;;;;4.70;4.30;;;6.60;99.90;;;;;;5036053;28;20179;-66
2022/04/28 00:40:37;;;;;;;5.50;4.95;;;6.50;99.90;;;;;;5036163;28;20493;-67
2022/04/28 00:43:23;;;;;;;5.00;4.55;;;6.50;99.90;;;;;;5035882;28;20201;-66
2022/04/28 00:45:50;;;;;;;6.75;6.15;;;6.40;99.90;;;;;;5036296;28;20194;-66
2022/04/28 00:51:03;;;;;;;7.30;4.72;;;6.40;99.90;;;;;;5036456;28;20185;-66
2022/04/28 00:53:30;;;;;;;4.93;4.30;;;6.40;99.90;;;;;;5035311;28;20181;-66
2022/04/28 00:55:57;;;;;;;6.30;5.38;;;6.40;99.90;;;;;;5034451;28;20199;-66
2022/04/28 00:58:23;;;;;;;9.20;7.13;;;6.40;99.90;;;;;;5036049;28;20232;-66
2022/04/28 01:00:50;;;;;;;7.28;5.82;;;6.40;99.90;;;;;;5035697;28;20204;-66
2022/04/28 01:03:16;;;;;;;6.50;4.80;;;6.40;99.90;;;;;;5035190;28;20183;-66
2022/04/28 01:05:42;;;;;;;5.35;4.38;;;6.40;99.90;;;;;;5035625;28;20229;-66
2022/04/28 01:08:08;;;;;;;5.50;4.90;;;6.30;99.90;;;;;;5035858;28;20253;-66
2022/04/28 01:10:37;;;;;;;7.17;5.87;;;6.30;99.90;;;;;;5035832;28;20289;-66
2022/04/28 01:13:03;;;;;;;6.72;4.80;;;6.30;99.90;;;;;;5035326;28;20437;-66
2022/04/28 01:15:29;;;;;;;4.90;3.95;;;6.20;99.90;;;;;;5035781;28;20195;-66
2022/04/28 01:17:55;;;;;;;7.07;5.10;;;6.20;99.90;;;;;;5035825;28;20181;-66
2022/04/28 01:20:21;;;;;;;6.20;5.60;;;6.20;99.90;;;;;;5035671;28;20202;-65
2022/04/28 01:22:46;;;;;;;5.90;4.95;;;6.20;99.90;;;;;;5035242;28;20207;-67
2022/04/28 01:25:13;;;;;;;4.87;4.30;;;6.10;99.90;;;;;;5035325;28;20225;-66
2022/04/28 01:27:39;;;;;;;7.30;6.07;;;6.10;99.90;;;;;;5035557;28;20163;-66
2022/04/28 01:30:12;;;;;;;5.72;4.30;;;6.10;99.90;;;;;;5035285;28;20249;-66
2022/04/28 01:32:38;;;;;;;5.97;5.07;;;6.10;99.90;;;;;;5035061;28;20197;-66
2022/04/28 01:35:03;;;;;;;5.57;5.00;;;6.00;99.90;;;;;;5034816;28;20224;-65
2022/04/28 01:37:29;;;;;;;5.43;4.30;;;6.00;99.90;;;;;;5035050;28;20189;-66
2022/04/28 01:39:56;;;;;;;5.40;4.57;;;6.00;99.90;;;;;;5035150;28;20405;-66
2022/04/28 01:42:23;;;;;;;6.22;4.32;;;5.90;99.90;;;;;;5035162;28;20249;-66
2022/04/28 01:44:49;;;;;;;8.73;5.18;;;5.90;99.90;;;;;;5034426;28;20264;-66
2022/04/28 01:47:15;;;;;;;7.22;5.55;;;5.90;99.90;;;;;;5035020;28;20232;-66
2022/04/28 01:49:41;;;;;;;5.13;4.15;;;5.80;99.90;;;;;;5035314;28;20165;-66
2022/04/28 01:54:59;;;;;;;4.65;4.25;;;5.80;99.90;;;;;;5034465;28;20560;-66
2022/04/28 01:57:27;;;;;;;6.70;4.68;;;5.70;99.90;;;;;;5034734;28;20178;-66
2022/04/28 01:59:53;;;;;;;7.35;4.75;;;5.70;99.90;;;;;;5034830;28;20249;-67
2022/04/28 02:02:19;;;;;;;4.80;4.45;;;5.70;99.90;;;;;;5034744;28;20248;-65
2022/04/28 02:04:45;;;;;;;5.80;4.95;;;5.60;99.90;;;;;;5033931;28;20223;-66
2022/04/28 02:07:13;;;;;;;5.40;4.90;;;5.60;99.90;;;;;;5034006;28;20180;-65
2022/04/28 02:09:42;;;;;;;3.92;3.42;;;5.60;99.90;;;;;;5034830;28;20520;-65
2022/04/28 02:12:09;;;;;;;4.70;4.25;;;5.60;99.90;;;;;;5034638;28;20691;-66
2022/04/28 02:14:41;;;;;;;5.97;4.93;;;5.50;99.90;;;;;;5034284;28;20199;-66
2022/04/28 02:17:07;;;;;;;5.55;4.88;;;5.40;99.90;;;;;;5032937;28;20178;-66
2022/04/28 02:19:34;;;;;;;7.20;5.53;;;5.50;99.90;;;;;;5033043;28;20225;-67
2022/04/28 02:22:01;;;;;;;5.10;4.63;;;5.50;99.90;;;;;;5034398;28;20891;-66
2022/04/28 02:24:27;;;;;;;5.55;5.05;;;5.50;99.90;;;;;;5033753;28;20536;-66
2022/04/28 02:26:53;;;;;;;6.77;4.97;;;5.50;99.90;;;;;;5034002;28;20169;-66
2022/04/28 02:29:19;;;;;;;6.30;5.70;;;5.50;99.90;;;;;;5033098;28;20405;-66
2022/04/28 02:31:52;;;;;;;6.03;5.40;;;5.50;99.90;;;;;;5034441;28;20177;-66
2022/04/28 02:34:18;;;;;;;7.95;5.35;;;5.50;99.90;;;;;;5032435;28;20491;-66
2022/04/28 02:36:53;;;;;;;7.82;6.63;;;5.50;99.90;;;;;;5033728;28;20174;-66
2022/04/28 02:39:23;;;;;;;6.13;4.63;;;5.50;99.90;;;;;;5034699;28;20205;-65
2022/04/28 02:41:48;;;;;;;6.57;5.88;;;5.50;99.90;;;;;;5032663;28;20206;-67
2022/04/28 02:44:20;;;;;;;4.90;4.50;;;5.50;99.90;;;;;;5033383;28;20269;-65
2022/04/28 02:46:48;;;;;;;4.28;3.88;;;5.50;99.90;;;;;;5033915;28;20417;-65
2022/04/28 02:49:15;;;;;;;5.72;5.20;;;5.50;99.90;;;;;;5034094;28;20640;-66
2022/04/28 02:51:41;;;;;;;7.65;4.47;;;5.40;99.90;;;;;;5033800;28;20202;-66
2022/04/28 02:54:08;;;;;;;7.63;5.53;;;5.40;99.90;;;;;;5039987;22;21867;-66
2022/04/28 02:56:37;;;;;;;8.02;5.85;;;5.40;99.90;;;;;;5033624;28;20171;-66
2022/04/28 02:59:03;;;;;;;7.10;5.85;;;5.40;99.90;;;;;;5032397;28;20197;-67
2022/04/28 03:01:35;;;;;;;6.32;5.30;;;5.30;99.90;;;;;;5033670;28;20201;-66
2022/04/28 03:04:00;;;;;;;4.28;3.97;;;5.40;99.90;;;;;;5033308;28;20217;-66
2022/04/28 03:11:54;;;;;;;7.40;5.25;;;5.30;99.90;;;;;;5033959;28;20547;-67
2022/04/28 03:14:23;;;;;;;5.03;4.63;;;5.20;99.90;;;;;;5033219;28;20190;-67
2022/04/28 03:16:49;;;;;;;6.32;4.45;;;5.20;99.90;;;;;;5033157;28;20178;-67
2022/04/28 03:19:15;;;;;;;5.18;4.72;;;5.20;99.90;;;;;;5031539;28;20182;-66
2022/04/28 03:21:45;;;;;;;6.25;4.93;;;5.20;99.90;;;;;;5032026;28;20205;-66
2022/04/28 03:24:10;;;;;;;5.95;5.35;;;5.10;99.90;;;;;;5031642;28;20193;-66
2022/04/28 03:26:38;;;;;;;8.20;5.33;;;5.10;99.90;;;;;;5033144;28;20659;-66
2022/04/28 03:29:04;;;;;;;5.40;4.75;;;5.10;99.90;;;;;;5033300;28;20166;-66
2022/04/28 03:31:30;;;;;;;4.80;4.33;;;5.00;99.90;;;;;;5033524;28;20536;-65
2022/04/28 03:33:55;;;;;;;6.10;4.70;;;5.10;99.90;;;;;;5032779;28;20241;-66
2022/04/28 03:39:06;;;;;;;7.65;4.53;;;5.00;99.90;;;;;;5033122;28;20197;-66
2022/04/28 03:41:34;;;;;;;4.90;4.35;;;5.00;99.90;;;;;;5033191;28;20201;-66
2022/04/28 03:44:00;;;;;;;5.25;4.68;;;5.00;99.90;;;;;;5033043;28;20559;-65
2022/04/28 03:46:26;;;;;;;5.53;5.00;;;5.00;99.90;;;;;;5031928;28;20178;-67
2022/04/28 03:48:52;;;;;;;6.17;4.13;;;5.00;99.90;;;;;;5032278;28;20236;-66
2022/04/28 03:51:21;;;;;;;7.78;5.32;;;5.00;99.90;;;;;;5028916;28;20427;-66
2022/04/28 03:53:46;;;;;;;5.53;5.07;;;5.00;99.90;;;;;;5023718;28;20190;-66
2022/04/28 03:56:12;;;;;;;4.73;4.33;;;5.00;99.90;;;;;;5032944;28;20194;-66
2022/04/28 03:58:40;;;;;;;6.83;5.90;;;5.00;99.90;;;;;;5032133;28;20186;-67
2022/04/28 04:01:06;;;;;;;7.53;5.07;;;5.10;99.90;;;;;;5033066;28;20198;-66
2022/04/28 04:03:38;;;;;;;6.18;5.32;;;5.00;99.90;;;;;;5031436;28;20250;-65
2022/04/28 04:06:06;;;;;;;7.20;5.72;;;5.00;99.90;;;;;;5032661;28;20175;-66
2022/04/28 04:08:32;;;;;;;5.40;4.88;;;5.00;99.90;;;;;;5017388;28;20181;-66
2022/04/28 04:10:57;;;;;;;6.60;4.77;;;5.00;99.90;;;;;;5014906;28;20569;-66
2022/04/28 04:13:30;;;;;;;5.90;5.22;;;4.90;99.90;;;;;;5032815;28;20197;-65
2022/04/28 04:15:59;;;;;;;4.55;3.78;;;4.90;99.90;;;;;;5031569;28;20206;-66
2022/04/28 04:18:30;;;;;;;6.72;5.65;;;4.90;99.90;;;;;;5032509;28;20182;-65
2022/04/28 04:20:56;;;;;;;5.10;4.25;;;4.90;99.90;;;;;;5031872;28;20229;-66
2022/04/28 04:23:25;;;;;;;7.13;4.93;;;5.00;99.90;;;;;;5032534;28;20185;-66
2022/04/28 04:25:51;;;;;;;9.98;6.32;;;5.00;99.90;;;;;;5031485;28;20463;-65
2022/04/28 04:28:25;;;;;;;5.60;4.97;;;5.00;99.90;;;;;;5031323;28;20178;-66
2022/04/28 04:33:38;;;;;;;4.70;4.18;;;5.30;99.90;;;;;;5035998;28;20157;-65
2022/04/28 04:36:04;;;;;;;9.77;5.63;;;5.50;99.90;;;;;;5036577;28;20624;-66
2022/04/28 04:38:33;;;;;;;9.10;6.00;;;5.70;99.90;;;;;;5036197;28;20541;-66
2022/04/28 04:41:05;;;;;;;7.32;6.50;;;5.90;99.90;;;;;;5036354;28;20207;-66
2022/04/28 04:43:33;;;;;;;8.00;5.95;;;6.30;99.90;;;;;;5036049;28;20175;-66
2022/04/28 04:45:59;;;;;;;7.30;6.10;;;6.60;99.90;;;;;;5035610;28;20179;-65
2022/04/28 04:48:25;;;;;;;9.10;7.13;;;6.90;99.90;;;;;;5023664;28;20231;-67
2022/04/28 04:50:52;;;;;;;6.33;5.73;;;7.10;99.90;;;;;;5016533;28;20240;-66
2022/04/28 04:53:18;;;;;;;7.05;6.40;;;7.20;99.90;;;;;;5015994;28;20417;-67
2022/04/28 04:55:43;;;;;;;6.40;5.90;;;7.40;99.90;;;;;;5016276;28;20574;-66
2022/04/28 04:58:09;;;;;;;8.60;5.57;;;7.50;99.90;;;;;;5025003;28;20178;-64
2022/04/28 05:00:34;;;;;;;5.67;5.10;;;7.60;99.90;;;;;;5035873;28;20689;-67
2022/04/28 05:03:00;;;;;;;6.83;6.13;;;7.90;99.90;;;;;;5035828;28;20174;-67
2022/04/28 05:05:26;;;;;;;6.70;6.10;;;8.30;99.90;;;;;;5032877;28;20201;-66
2022/04/28 05:07:55;;;;;;;6.70;5.23;;;8.50;99.90;;;;;;5031314;28;20174;-67
2022/04/28 05:10:20;;;;;;;7.38;6.57;;;8.70;99.90;;;;;;5035318;28;20186;-67
2022/04/28 05:12:46;;;;;;;5.60;5.00;;;9.00;99.90;;;;;;5035781;28;20216;-67
2022/04/28 05:15:14;;;;;;;6.40;5.70;;;9.00;99.90;;;;;;5034741;28;20190;-67
2022/04/28 05:17:40;;;;;;;5.53;5.03;;;8.90;99.90;;;;;;5029498;28;20171;-70
2022/04/28 05:20:07;;;;;;;5.53;5.20;;;8.80;99.90;;;;;;5016928;28;20174;-65
2022/04/28 05:22:35;;;;;;;6.00;5.30;;;8.80;99.90;;;;;;5019498;28;20198;-65
2022/04/28 05:25:10;;;;;;;5.10;4.65;;;8.90;99.90;;;;;;5021778;28;20205;-66
2022/04/28 05:27:36;;;;;;;5.00;4.53;;;9.20;99.90;;;;;;5023040;28;20206;-67
2022/04/28 05:30:11;;;;;;;6.88;5.10;;;9.50;99.90;;;;;;5028995;28;20189;-67
2022/04/28 05:32:37;;;;;;;20.30;4.88;;;9.80;99.90;;;;;;5034333;28;20182;-64
2022/04/28 05:35:06;;;;;;;6.10;5.40;;;10.30;99.90;;;;;;5029509;28;20213;-65
2022/04/28 05:37:37;;;;;;;6.20;4.80;;;10.70;99.90;;;;;;5034450;28;20429;-64
2022/04/28 05:40:06;;;;;;;5.50;4.53;;;10.90;99.90;;;;;;5033547;28;20187;-64
2022/04/28 05:48:00;;;;;;;6.13;4.60;;;11.30;99.90;;;;;;5033767;28;20523;-63
2022/04/28 05:50:26;;;;;;;4.87;4.20;;;11.80;99.90;;;;;;5034261;28;20503;-65
2022/04/28 05:52:55;;;;;;;4.10;3.70;;;12.30;99.90;;;;;;5030249;28;20181;-64
2022/04/28 05:55:20;;;;;;;5.37;4.57;;;12.70;99.90;;;;;;5034656;28;20471;-65
2022/04/28 05:57:46;;;;;;;5.03;4.53;;;12.90;99.90;;;;;;5019385;28;20788;-65
2022/04/28 06:00:21;;;;;;;4.93;3.73;;;13.00;99.90;;;;;;5026817;28;20186;-67
2022/04/28 06:02:47;;;;;;;5.20;4.77;;;13.10;99.90;;;;;;5034197;28;20181;-67
2022/04/28 06:05:16;;;;;;;5.20;4.73;;;13.10;99.90;;;;;;5028774;28;20471;-65
2022/04/28 06:07:41;;;;;;;6.53;4.37;;;13.20;99.90;;;;;;5032856;28;20528;-68
2022/04/28 06:10:12;;;;;;;5.10;4.60;;;13.10;99.90;;;;;;5025977;28;20425;-61
2022/04/28 06:12:38;;;;;;;5.73;5.23;;;12.90;99.90;;;;;;5026149;28;20240;-64
2022/04/28 06:15:04;;;;;;;5.23;4.73;;;12.70;99.90;;;;;;5033498;28;20471;-63
2022/04/28 06:17:38;;;;;;;4.50;4.10;;;12.70;99.90;;;;;;5019303;28;20433;-65
2022/04/28 06:20:05;;;;;;;4.67;4.33;;;12.90;99.90;;;;;;5020751;28;20734;-64
2022/04/28 06:22:31;;;;;;;6.00;4.17;;;13.30;99.90;;;;;;5023328;28;20472;-63
2022/04/28 06:24:58;;;;;;;4.33;4.03;;;13.70;99.90;;;;;;5019599;28;21824;-63
2022/04/28 06:27:24;;;;;;;4.30;3.90;;;13.90;99.90;;;;;;5014442;28;20264;-63
2022/04/28 06:29:50;;;;;;;5.43;4.37;;;13.90;99.90;;;;;;5033316;28;20554;-65
2022/04/28 06:32:16;;;;;;;4.40;4.00;;;14.00;99.50;;;;;;5023196;28;20174;-64
2022/04/28 06:34:53;;;;;;;4.50;4.20;;;13.90;99.60;;;;;;5031945;28;20449;-64
2022/04/28 06:37:19;;;;;;;5.80;5.30;;;13.90;99.70;;;;;;5032063;28;20427;-64
2022/04/28 06:39:47;;;;;;;5.07;4.33;;;13.90;99.90;;;;;;5028300;28;20431;-63
2022/04/28 06:42:15;;;;;;;6.57;4.97;;;13.70;99.80;;;;;;5023555;28;20206;-63
2022/04/28 06:44:41;;;;;;;4.63;4.20;;;13.60;99.70;;;;;;5038443;22;20565;-64
2022/04/28 06:47:10;;;;;;;4.83;4.43;;;13.50;99.90;;;;;;5027507;28;20909;-64
2022/04/28 06:49:41;;;;;;;5.00;4.17;;;13.30;99.90;;;;;;5022428;28;20812;-64
2022/04/28 06:52:07;;;;;;;3.70;3.40;;;13.20;99.90;;;;;;5028280;28;20421;-65
2022/04/28 06:54:33;;;;;;;5.40;4.93;;;13.20;99.90;;;;;;5013549;28;20500;-65
2022/04/28 06:56:59;;;;;;;4.57;4.27;;;13.30;99.90;;;;;;5016672;28;20182;-65
2022/04/28 06:59:27;;;;;;;3.90;3.37;;;13.50;99.90;;;;;;5032930;28;20181;-65
2022/04/28 07:01:53;;;;;;;5.90;4.20;;;13.70;99.90;;;;;;5030418;28;20211;-63
2022/04/28 07:04:18;;;;;;;4.70;4.30;;;13.80;99.90;;;;;;5025591;28;20448;-66
2022/04/28 07:06:44;;;;;;;5.50;4.10;;;14.00;99.90;;;;;;5032977;28;20539;-65
2022/04/28 07:09:10;;;;;;;4.60;4.20;;;14.30;99.90;;;;;;5033054;28;20174;-65
2022/04/28 07:11:36;;;;;;;4.47;4.07;;;14.60;99.60;;;;;;5032447;28;20179;-65
2022/04/28 07:14:02;;;;;;;4.60;4.20;;;15.10;99.20;;;;;;5021698;28;20235;-65
2022/04/28 07:16:27;;;;;;;4.40;4.00;;;15.50;98.40;;;;;;5026236;28;20419;-66
2022/04/28 07:18:56;;;;;;;5.70;5.20;;;15.80;98.30;;;;;;5032110;28;20182;-64
2022/04/28 07:21:21;;;;;;;6.10;5.00;;;16.10;97.60;;;;;;5031278;28;20196;-66
2022/04/28 07:23:47;;;;;;;4.70;4.30;;;16.30;96.90;;;;;;5019931;28;20421;-65
2022/04/28 07:26:12;;;;;;;4.60;3.90;;;16.60;96.00;;;;;;5032700;28;20192;-65
2022/04/28 07:28:41;;;;;;;4.20;3.80;;;17.00;95.80;;;;;;5027327;28;20167;-65
2022/04/28 07:31:10;;;;;;;5.30;4.00;;;17.90;95.20;;;;;;5013465;28;20179;-66
2022/04/28 07:33:36;;;;;;;3.77;3.47;;;19.00;93.50;;;;;;5013088;28;20428;-66
2022/04/28 07:36:02;;;;;;;5.83;4.43;;;20.10;92.30;;;;;;5033404;28;20380;-66
2022/04/28 07:38:31;;;;;;;4.43;4.13;;;21.30;90.10;;;;;;5033065;28;20431;-65
2022/04/28 07:40:56;;;;;;;4.43;3.60;;;22.50;87.20;;;;;;5032575;28;20297;-66
2022/04/28 07:43:22;;;;;;;4.67;4.37;;;23.20;84.10;;;;;;5032250;28;20456;-67
2022/04/28 07:45:49;;;;;;;5.23;4.73;;;24.10;80.70;;;;;;5029692;28;20242;-67
2022/04/28 07:48:18;;;;;;;4.30;4.00;;;24.80;76.90;;;;;;5033054;28;20389;-64
2022/04/28 07:50:43;;;;;;;6.27;5.07;;;25.30;75.90;;;;;;5032958;28;20390;-66
2022/04/28 07:53:12;;;;;;;5.50;4.83;;;25.90;73.70;;;;;;5032630;28;20379;-65
2022/04/28 07:55:40;;;;;;;5.50;5.03;;;26.40;70.10;;;;;;5030976;28;20283;-67
2022/04/28 07:58:06;;;;;;;4.40;4.10;;;26.60;67.80;;;;;;5032834;28;20550;-66
2022/04/28 08:00:35;;;;;;;4.77;4.37;;;26.60;68.10;;;;;;5033143;28;20492;-67
2022/04/28 08:03:00;;;;;;;7.20;5.03;;;26.70;68.40;;;;;;5031248;28;20174;-66
2022/04/28 08:05:26;;;;;;;6.20;4.23;;;27.10;66.20;;;;;;5035214;28;20441;-67
2022/04/28 08:07:52;;;;;;;5.23;4.73;;;27.60;64.10;;;;;;5036870;28;20174;-66
2022/04/28 08:10:17;;;;;;;3.70;3.40;;;27.70;62.00;;;;;;5036750;28;20629;-66
2022/04/28 08:12:43;;;;;;;4.50;4.07;;;27.80;62.60;;;;;;5036798;28;20208;-67
2022/04/28 08:15:10;;;;;;;4.80;4.43;;;28.20;61.40;;;;;;5035965;28;20198;-66
2022/04/28 08:17:35;;;;;;;3.63;3.43;;;28.70;59.00;;;;;;5036963;28;20178;-67
2022/04/28 08:20:04;;;;;;;5.20;4.80;;;29.10;58.60;;;;;;5036668;28;20527;-67
2022/04/28 08:22:29;;;;;;;4.23;3.93;;;29.60;56.60;;;;;;5036772;28;20174;-67
2022/04/28 08:24:55;;;;;;;5.00;4.60;;;29.90;56.00;;;;;;5035957;28;20453;-66
2022/04/28 08:27:25;;;;;;;4.23;3.90;;;29.90;54.70;;;;;;5036886;28;20174;-66
2022/04/28 08:29:51;;;;;;;4.70;4.40;;;29.70;54.40;;;;;;5035289;28;20166;-66
2022/04/28 08:32:17;;;;;;;4.10;3.70;;;29.60;54.30;;;;;;5036447;28;20463;-66
2022/04/28 08:34:42;;;;;;;4.20;3.90;;;29.10;55.00;;;;;;5035726;28;20860;-66
2022/04/28 08:37:11;;;;;;;3.53;3.23;;;29.00;54.40;;;;;;5035014;28;20231;-66
2022/04/28 08:39:40;;;;;;;3.43;3.13;;;28.80;52.50;;;;;;5036631;28;20505;-65
2022/04/28 08:42:15;;;;;;;3.10;2.90;;;28.90;51.50;;;;;;5036402;28;20499;-66
2022/04/28 08:44:43;;;;;;;2.73;2.47;;;29.40;49.40;;;;;;5035590;28;20456;-68
2022/04/28 08:47:08;;;;;;;3.23;2.93;;;29.50;49.60;;;;;;5036425;28;20412;-65
2022/04/28 08:49:38;;;;;;;4.33;3.53;;;29.40;48.80;;;;;;5034566;28;20384;-66
2022/04/28 08:52:06;;;;;;;4.17;2.43;;;29.00;48.40;;;;;;5035895;28;20328;-66
2022/04/28 08:54:36;;;;;;;3.00;2.80;;;28.50;49.00;;;;;;5035015;28;20419;-66
2022/04/28 08:57:01;;;;;;;3.03;2.83;;;28.20;50.00;;;;;;5035952;28;20746;-68
2022/04/28 08:59:33;;;;;;;2.67;2.47;;;28.10;48.20;;;;;;5035915;28;20384;-65
2022/04/28 09:02:13;;;;;;;3.37;2.67;;;28.00;48.10;;;;;;5034539;28;20250;-67
2022/04/28 09:04:44;;;;;;;3.13;2.93;;;28.00;47.90;;;;;;5032509;28;20820;-66
2022/04/28 09:07:13;;;;;;;2.80;2.40;;;28.30;48.40;;;;;;5036023;28;20409;-67
2022/04/28 09:09:39;;;;;;;2.50;2.30;;;28.40;47.80;;;;;;5035874;28;20436;-66
2022/04/28 09:12:08;;;;;;;2.60;2.50;;;28.70;49.60;;;;;;5034300;28;20460;-68
2022/04/28 09:14:34;;;;;;;2.93;2.70;;;28.80;48.40;;;;;;5035235;28;20824;-66
2022/04/28 09:17:03;;;;;;;2.53;2.43;;;28.90;46.40;;;;;;5034179;28;20463;-65
2022/04/28 09:19:34;;;;;;;3.10;2.80;;;29.00;46.40;;;;;;5035458;28;20676;-67
2022/04/28 09:22:09;;;;;;;2.70;2.50;;;29.30;46.10;;;;;;5035417;28;20407;-67
2022/04/28 09:24:39;;;;;;;2.53;2.37;;;29.60;45.90;;;;;;5033495;28;20419;-67
2022/04/28 09:27:07;;;;;;;3.00;2.80;;;29.90;45.90;;;;;;5035350;28;20412;-68
2022/04/28 09:29:39;;;;;;;3.17;2.77;;;30.30;45.50;;;;;;5035270;28;20972;-66
2022/04/28 09:32:13;;;;;;;2.70;2.50;;;30.50;45.00;;;;;;5035252;28;20457;-66
2022/04/28 09:34:49;;;;;;;3.50;2.90;;;30.70;44.10;;;;;;5035008;28;20454;-67
2022/04/28 09:37:26;;;;;;;2.40;2.20;;;30.60;42.10;;;;;;5035483;28;20711;-66
2022/04/28 09:42:57;;;;;;;2.93;2.20;;;30.50;40.30;;;;;;5012594;28;20417;-67
2022/04/28 09:45:25;;;;;;;2.90;2.70;;;30.10;40.80;;;;;;5029833;28;20503;-66
2022/04/28 09:48:03;;;;;;;2.13;2.03;;;29.90;41.40;;;;;;5017519;28;20233;-67
2022/04/28 09:50:31;;;;;;;2.80;2.60;;;29.70;42.20;;;;;;5015445;28;20738;-67
2022/04/28 09:53:03;;;;;;;2.67;2.30;;;29.60;40.80;;;;;;5015146;28;20396;-67
2022/04/28 09:55:30;;;;;;;2.47;2.27;;;29.70;40.50;;;;;;5015194;28;20399;-67
2022/04/28 09:57:56;;;;;;;2.83;2.63;;;29.90;40.90;;;;;;5014929;28;20421;-67
2022/04/28 10:00:22;;;;;;;2.30;2.20;;;30.10;40.20;;;;;;5014935;28;20406;-67
2022/04/28 10:02:49;;;;;;;2.70;2.47;;;30.20;40.50;;;;;;5014937;28;20198;-67
2022/04/28 10:05:16;;;;;;;2.53;2.33;;;29.60;40.40;;;;;;5014772;28;20191;-67
2022/04/28 10:07:43;;;;;;;3.10;2.90;;;28.80;40.70;;;;;;5028847;28;20429;-67
2022/04/28 10:10:09;;;;;;;2.73;2.53;;;28.30;41.50;;;;;;5034832;28;20739;-67
2022/04/28 10:12:35;;;;;;;2.87;2.67;;;28.30;41.80;;;;;;5034772;28;20459;-66
2022/04/28 10:15:05;;;;;;;2.80;2.60;;;28.40;42.20;;;;;;5034011;28;20244;-67
2022/04/28 10:18:00;;;;;;;3.13;2.93;;;28.50;42.30;;;;;;5022975;28;20400;-68
2022/04/28 10:20:45;;;;;;;2.77;2.57;;;28.60;42.20;;;;;;5001447;28;20422;-68
2022/04/28 10:23:13;;;;;;;2.23;2.13;;;29.00;41.90;;;;;;5014378;28;20955;-68
2022/04/28 10:34:19;;;;;;;2.40;2.30;;;29.20;40.20;;;;;;5033911;28;20391;-67
2022/04/28 10:36:57;;;;;;;2.77;2.57;;;28.50;40.80;;;;;;5029030;28;20450;-66
2022/04/28 10:39:43;;;;;;;2.07;1.97;;;28.10;41.20;;;;;;5014367;28;20459;-67
2022/04/28 10:42:25;;;;;;;2.73;2.53;;;27.50;41.20;;;;;;5014177;28;20902;-67
2022/04/28 10:44:57;;;;;;;2.70;2.50;;;27.40;42.00;;;;;;5013989;28;20532;-68
2022/04/28 10:47:33;;;;;;;2.50;2.30;;;27.20;41.80;;;;;;5023198;28;20402;-67
2022/04/28 10:49:59;;;;;;;2.90;2.70;;;26.80;42.80;;;;;;5034251;28;20443;-67
2022/04/28 10:52:26;;;;;;;3.27;2.87;;;26.30;42.50;;;;;;5033846;28;20870;-67
2022/04/28 10:55:01;;;;;;;2.80;2.33;;;26.10;42.90;;;;;;5033539;28;20407;-67
2022/04/28 10:57:32;;;;;;;2.60;2.40;;;26.20;43.30;;;;;;5024200;28;20396;-66
2022/04/28 11:00:00;;;;;;;2.17;2.07;;;26.30;42.60;;;;;;5014263;28;20757;-66
2022/04/28 11:02:26;;;;;;;2.40;2.20;;;26.00;42.80;;;;;;5014187;28;20768;-66
2022/04/28 11:05:01;;;;;;;2.77;2.57;;;25.80;43.70;;;;;;5013482;28;20433;-65
2022/04/28 11:07:30;;;;;;;2.73;2.53;;;25.50;43.40;;;;;;5022982;28;20181;-65
2022/04/28 11:10:02;;;;;;;2.10;2.00;;;24.90;43.70;;;;;;5033556;28;20386;-65
2022/04/28 11:12:35;;;;;;;1.90;1.80;;;24.00;44.50;;;;;;5033564;28;20448;-65
2022/04/28 11:15:07;;;;;;;2.07;1.93;;;22.90;45.90;;;;;;5033177;28;20610;-65
2022/04/28 11:17:37;;;;;;;2.10;1.93;;;22.10;46.60;;;;;;5023370;28;20423;-66
2022/04/28 11:20:07;;;;;;;1.97;1.87;;;21.50;47.00;;;;;;5013943;28;20415;-65
2022/04/28 11:22:33;;;;;;;2.00;1.90;;;21.10;47.60;;;;;;5013884;28;20881;-66
2022/04/28 11:24:59;;;;;;;2.90;2.60;;;20.60;47.60;;;;;;5013393;28;20434;-66
2022/04/28 11:27:27;;;;;;;2.03;1.93;;;20.20;48.00;;;;;;5021732;28;20429;-66
2022/04/28 11:29:58;;;;;;;2.80;2.40;;;19.90;48.70;;;;;;5033298;28;20463;-66
2022/04/28 11:32:24;;;;;;;1.63;1.50;;;19.70;48.90;;;;;;5033294;28;20464;-67
2022/04/28 11:34:52;;;;;;;2.30;2.13;;;19.60;48.70;;;;;;5032915;28;20850;-67
2022/04/28 11:37:22;;;;;;;1.80;1.70;;;19.50;49.90;;;;;;5026188;28;20421;-65
2022/04/28 11:39:50;;;;;;;2.33;2.10;;;19.50;51.20;;;;;;5012587;28;20409;-66
2022/04/28 11:42:17;;;;;;;2.57;2.20;;;19.60;49.10;;;;;;5013557;28;20437;-64
2022/04/28 11:44:53;;;;;;;1.60;1.50;;;19.50;49.20;;;;;;5012715;28;20429;-66
2022/04/28 11:47:23;;;;;;;2.33;2.23;;;19.40;49.70;;;;;;5018718;28;20421;-67
2022/04/28 11:49:56;;;;;;;2.23;2.03;;;19.30;50.20;;;;;;5033153;28;20405;-66
2022/04/28 11:52:26;;;;;;;2.23;2.10;;;19.30;49.20;;;;;;5033209;28;20477;-66
2022/04/28 11:54:57;;;;;;;2.30;2.10;;;19.20;50.50;;;;;;5032582;28;20427;-65
2022/04/28 11:57:23;;;;;;;4.07;2.33;;;19.20;49.30;;;;;;5026592;28;20942;-68
2022/04/28 11:59:50;;;;;;;2.00;1.90;;;19.20;51.60;;;;;;5013452;28;20416;-66
2022/04/28 12:02:43;;;;;;;1.80;1.70;;;19.30;50.80;;;;;;5013002;28;20500;-67
2022/04/28 12:05:18;;;;;;;1.90;1.80;;;19.30;51.20;;;;;;5010288;28;20503;-66
2022/04/28 12:07:51;;;;;;;3.03;2.73;;;19.40;50.70;;;;;;5021479;28;21177;-65
2022/04/28 12:16:06;;;;;;;2.03;1.93;;;19.40;50.40;;;;;;5033094;28;20391;-67
2022/04/28 12:21:18;;;;;;;2.20;2.03;;;19.40;49.60;;;;;;5013745;28;20456;-66
2022/04/28 12:23:47;;;;;;;2.13;2.00;;;19.40;50.00;;;;;;5013243;28;20381;-66
2022/04/28 12:26:13;;;;;;;2.03;1.90;;;19.40;50.40;;;;;;5013842;28;20803;-63
2022/04/28 12:28:42;;;;;;;2.43;2.23;;;19.40;49.90;;;;;;5025665;28;20502;-63
2022/04/28 12:31:09;;;;;;;2.30;2.20;;;19.40;49.80;;;;;;5024241;28;21001;-65
2022/04/28 12:33:37;;;;;;;4.83;2.10;;;19.40;49.40;;;;;;5033341;28;20441;-67
2022/04/28 12:36:07;;;;;;;2.03;1.93;;;19.40;50.20;;;;;;5014646;28;20771;-67
2022/04/28 12:38:35;;;;;;;1.73;1.63;;;19.40;50.20;;;;;;5013246;28;20839;-66
2022/04/28 12:41:15;;;;;;;2.07;1.97;;;19.40;49.70;;;;;;5012958;28;20416;-66
2022/04/28 12:43:42;;;;;;;2.60;2.40;;;19.40;50.60;;;;;;5012533;28;20414;-67
2022/04/28 12:46:10;;;;;;;2.40;2.20;;;19.40;51.60;;;;;;5012377;28;20437;-66
2022/04/28 12:48:37;;;;;;;1.93;1.83;;;19.40;51.60;;;;;;5032610;28;20465;-66
2022/04/28 12:51:08;;;;;;;1.70;1.60;;;19.50;51.80;;;;;;5034723;28;20454;-66
2022/04/28 12:53:34;;;;;;;2.50;2.40;;;19.50;51.30;;;;;;5035686;28;20409;-66
2022/04/28 12:56:08;;;;;;;1.90;1.80;;;19.50;51.10;;;;;;5034877;28;20948;-67
2022/04/28 12:58:48;;;;;;;1.50;1.40;;;19.60;50.60;;;;;;5036118;28;20793;-67
2022/04/28 13:01:19;;;;;;;2.20;2.10;;;19.60;49.10;;;;;;5035963;28;20467;-67
2022/04/28 13:04:02;;;;;;;1.77;1.67;;;19.60;49.10;;;;;;5035319;28;20421;-66
2022/04/28 13:06:35;;;;;;;1.47;1.40;;;19.60;49.00;;;;;;5036137;28;20799;-64
2022/04/28 13:09:02;;;;;;;2.37;2.17;;;19.50;49.10;;;;;;5035962;28;20488;-66
2022/04/28 13:11:30;;;;;;;2.00;1.90;;;19.50;50.30;;;;;;5035710;28;20555;-66
2022/04/28 13:13:58;;;;;;;1.83;1.73;;;19.50;49.70;;;;;;5035319;28;20464;-66
2022/04/28 13:16:24;;;;;;;2.27;2.07;;;19.40;49.70;;;;;;5035612;28;20494;-65
2022/04/28 13:18:51;;;;;;;2.60;1.97;;;19.40;49.70;;;;;;5035675;28;20455;-65
2022/04/28 13:21:17;;;;;;;2.40;2.17;;;19.40;50.30;;;;;;5034338;28;20768;-65
2022/04/28 13:23:44;;;;;;;2.63;2.43;;;19.40;50.10;;;;;;5025454;28;20443;-66
2022/04/28 13:26:11;;;;;;;1.70;1.60;;;19.50;50.40;;;;;;5015716;28;20493;-67
2022/04/28 13:28:38;;;;;;;2.13;2.03;;;19.40;49.70;;;;;;5014555;28;20417;-67
2022/04/28 13:31:04;;;;;;;3.07;1.93;;;19.40;50.90;;;;;;5016006;28;20460;-67
2022/04/28 13:33:31;;;;;;;3.00;2.70;;;19.40;51.40;;;;;;5015002;28;20410;-66
2022/04/28 13:35:56;;;;;;;1.73;1.63;;;19.50;51.10;;;;;;5015412;28;20932;-66
2022/04/28 13:38:23;;;;;;;2.23;1.93;;;19.50;50.70;;;;;;5014261;28;20410;-66